Time;durP1;ratioP1;P1;durP2;ratioP2;P2;SDS_P1;SDS_P2;PMS_P1;PMS_P2;Temp;Humidity;BMP_temperature;BMP_pressure;BME280_temperature;BME280_humidity;BME280_pressure;Samples;Min_cycle;Max_cycle;Signal;HPM_P1;HPM_P2
2021/06/16 00:02:18;;;;;;;3.22;2.40;;;20.10;64.60;;;;;;5019386;28;20033;-70
2021/06/16 00:04:44;;;;;;;4.10;2.40;;;20.00;64.60;;;;;;5027885;28;20022;-70
2021/06/16 00:07:10;;;;;;;5.05;2.60;;;19.90;64.70;;;;;;5027487;28;20032;-70
2021/06/16 00:09:36;;;;;;;3.70;2.40;;;19.90;64.90;;;;;;5028365;28;20033;-70
2021/06/16 00:12:02;;;;;;;4.43;2.80;;;19.90;65.10;;;;;;5010648;28;20028;-70
2021/06/16 00:14:28;;;;;;;4.03;2.33;;;19.90;65.10;;;;;;5027904;28;20037;-70
2021/06/16 00:16:53;;;;;;;3.67;2.35;;;19.80;65.10;;;;;;5029320;28;20030;-70
2021/06/16 00:19:19;;;;;;;2.95;2.55;;;19.80;65.10;;;;;;5029782;28;20104;-70
2021/06/16 00:21:45;;;;;;;9.82;2.58;;;19.70;65.10;;;;;;5028768;28;20073;-70
2021/06/16 00:24:11;;;;;;;2.70;2.35;;;19.70;65.40;;;;;;5028276;28;20132;-70
2021/06/16 00:26:36;;;;;;;2.72;2.25;;;19.70;65.50;;;;;;5029358;28;20427;-70
2021/06/16 00:29:02;;;;;;;7.05;2.70;;;19.60;65.70;;;;;;5021221;28;20053;-70
2021/06/16 00:31:28;;;;;;;3.75;2.50;;;19.50;65.80;;;;;;5013518;28;20198;-70
2021/06/16 00:33:54;;;;;;;3.13;2.67;;;19.50;65.90;;;;;;5021958;28;20033;-70
2021/06/16 00:36:20;;;;;;;3.00;2.45;;;19.40;66.20;;;;;;5027049;28;20075;-70
2021/06/16 00:38:45;;;;;;;6.50;2.85;;;19.40;66.40;;;;;;5032954;28;20034;-70
2021/06/16 00:41:12;;;;;;;3.60;2.40;;;19.40;66.40;;;;;;5033349;28;20100;-70
2021/06/16 00:43:37;;;;;;;4.93;2.83;;;19.40;66.50;;;;;;5031111;28;20033;-70
2021/06/16 00:46:03;;;;;;;2.78;2.53;;;19.30;66.50;;;;;;5032323;28;20394;-70
2021/06/16 00:48:28;;;;;;;4.72;2.65;;;19.30;66.60;;;;;;5014088;28;20030;-70
2021/06/16 00:50:54;;;;;;;3.03;2.78;;;19.20;66.80;;;;;;5033898;28;20033;-70
2021/06/16 00:53:20;;;;;;;5.22;3.17;;;19.20;66.80;;;;;;5032843;28;20390;-70
2021/06/16 00:55:45;;;;;;;4.53;2.83;;;19.10;66.80;;;;;;5031763;28;20037;-70
2021/06/16 00:58:12;;;;;;;4.80;2.97;;;19.10;67.00;;;;;;5031513;28;20144;-70
2021/06/16 01:00:58;;;;;;;6.57;3.20;;;19.00;67.20;;;;;;5027033;28;20158;-70
2021/06/16 01:03:50;;;;;;;4.07;2.95;;;18.90;67.60;;;;;;5032956;28;20104;-70
2021/06/16 01:06:25;;;;;;;8.18;3.10;;;18.80;67.50;;;;;;5031917;28;20113;-70
2021/06/16 01:09:03;;;;;;;7.88;3.53;;;18.80;67.50;;;;;;5032471;28;20048;-70
2021/06/16 01:11:33;;;;;;;5.00;3.33;;;18.70;67.80;;;;;;5032973;28;20397;-70
2021/06/16 01:14:10;;;;;;;6.55;3.10;;;18.70;67.60;;;;;;5030479;28;20029;-70
2021/06/16 01:16:54;;;;;;;4.72;3.05;;;18.70;68.10;;;;;;5029779;28;20030;-70
2021/06/16 01:19:23;;;;;;;3.47;2.70;;;18.60;68.20;;;;;;5021291;28;20397;-69
2021/06/16 01:21:56;;;;;;;4.65;3.30;;;18.60;67.80;;;;;;5023130;28;20029;-69
2021/06/16 01:24:26;;;;;;;7.65;3.17;;;18.60;68.70;;;;;;5031106;28;20056;-69
2021/06/16 01:26:54;;;;;;;3.33;2.97;;;18.60;68.00;;;;;;5020907;28;20065;-69
2021/06/16 01:29:32;;;;;;;4.63;2.97;;;18.50;67.90;;;;;;5017193;28;20026;-69
2021/06/16 01:32:02;;;;;;;4.93;2.88;;;18.30;68.40;;;;;;5024306;28;20061;-69
2021/06/16 01:34:28;;;;;;;6.57;2.83;;;18.30;68.40;;;;;;5030854;28;20033;-69
2021/06/16 01:36:55;;;;;;;5.18;2.83;;;18.30;68.50;;;;;;5028399;28;20100;-69
2021/06/16 01:39:24;;;;;;;6.75;3.17;;;18.20;68.60;;;;;;5022350;28;20124;-69
2021/06/16 01:41:53;;;;;;;3.40;3.05;;;18.20;68.70;;;;;;5031644;28;20029;-69
2021/06/16 01:44:21;;;;;;;6.00;2.95;;;18.20;68.90;;;;;;5030638;28;20025;-69
2021/06/16 01:46:50;;;;;;;3.20;2.90;;;18.20;69.00;;;;;;5032115;28;20038;-69
2021/06/16 01:49:17;;;;;;;4.30;3.22;;;18.30;69.10;;;;;;5030877;28;20029;-68
2021/06/16 01:51:43;;;;;;;5.22;3.15;;;18.30;69.00;;;;;;5031267;28;20067;-69
2021/06/16 01:54:09;;;;;;;4.00;3.33;;;18.30;69.00;;;;;;5030641;28;20025;-73
2021/06/16 01:56:39;;;;;;;4.53;3.58;;;18.30;69.20;;;;;;5031573;28;20361;-69
2021/06/16 01:59:07;;;;;;;8.15;3.40;;;18.30;69.40;;;;;;5023750;28;20029;-69
2021/06/16 02:01:34;;;;;;;4.00;2.95;;;18.20;69.10;;;;;;5021063;28;20075;-69
2021/06/16 02:04:00;;;;;;;5.03;3.22;;;18.20;69.30;;;;;;5030543;28;20041;-69
2021/06/16 02:06:33;;;;;;;7.55;3.28;;;18.30;69.50;;;;;;5031310;28;20025;-69
2021/06/16 02:08:59;;;;;;;8.48;3.33;;;18.20;69.60;;;;;;5031420;28;20363;-69
2021/06/16 02:11:26;;;;;;;6.78;3.63;;;18.20;69.50;;;;;;5030043;28;20021;-69
2021/06/16 02:13:55;;;;;;;5.10;3.33;;;18.10;69.50;;;;;;5030163;28;20044;-69
2021/06/16 02:16:36;;;;;;;6.07;3.13;;;18.10;69.80;;;;;;5012841;28;20505;-68
2021/06/16 02:19:19;;;;;;;7.47;3.25;;;18.10;70.20;;;;;;5021082;28;20331;-69
2021/06/16 02:21:45;;;;;;;7.60;3.55;;;18.10;70.10;;;;;;5021970;28;20100;-69
2021/06/16 02:24:12;;;;;;;5.28;3.33;;;18.00;69.80;;;;;;5029645;28;20037;-69
2021/06/16 02:26:38;;;;;;;5.82;3.20;;;18.00;70.00;;;;;;5030426;28;20032;-69
2021/06/16 02:29:08;;;;;;;4.03;3.25;;;18.00;70.20;;;;;;5029988;28;20036;-69
2021/06/16 02:31:35;;;;;;;3.88;3.05;;;18.00;70.50;;;;;;5019475;28;20026;-69
2021/06/16 02:34:01;;;;;;;5.03;2.72;;;17.90;70.40;;;;;;5029365;28;20485;-69
2021/06/16 02:36:29;;;;;;;7.55;3.47;;;17.90;70.60;;;;;;5030305;28;20048;-69
2021/06/16 02:38:59;;;;;;;4.72;3.55;;;17.90;70.90;;;;;;5031046;28;20037;-69
2021/06/16 02:41:25;;;;;;;5.75;3.45;;;17.90;71.10;;;;;;5029570;28;20366;-69
2021/06/16 02:43:52;;;;;;;5.70;3.42;;;17.90;71.00;;;;;;5029563;28;20128;-68
2021/06/16 02:46:19;;;;;;;4.05;3.50;;;17.90;70.90;;;;;;5030443;28;20044;-69
2021/06/16 02:48:49;;;;;;;4.07;3.67;;;17.80;71.10;;;;;;5030487;28;20099;-69
2021/06/16 02:51:14;;;;;;;6.40;3.63;;;17.80;71.20;;;;;;5030583;28;20025;-69
2021/06/16 02:53:42;;;;;;;5.75;4.05;;;17.80;71.20;;;;;;5030264;28;20036;-69
2021/06/16 02:56:09;;;;;;;8.25;4.15;;;17.70;71.40;;;;;;5029950;28;20039;-69
2021/06/16 02:58:38;;;;;;;7.00;4.00;;;17.70;71.60;;;;;;5028315;28;20058;-68
2021/06/16 03:01:06;;;;;;;5.60;4.18;;;17.70;71.80;;;;;;5019331;28;20030;-69
2021/06/16 03:03:34;;;;;;;9.57;4.00;;;17.60;71.90;;;;;;5024156;28;20032;-69
2021/06/16 03:06:01;;;;;;;8.65;3.92;;;17.60;72.00;;;;;;5010745;28;20067;-69
2021/06/16 03:08:28;;;;;;;6.85;4.03;;;17.60;72.20;;;;;;5029956;28;20501;-69
2021/06/16 03:10:56;;;;;;;8.27;4.40;;;17.60;72.30;;;;;;5029848;28;20029;-69
2021/06/16 03:13:25;;;;;;;6.35;3.97;;;17.60;72.30;;;;;;5012522;28;20025;-69
2021/06/16 03:15:51;;;;;;;6.30;4.10;;;17.60;72.40;;;;;;5028836;28;20493;-69
2021/06/16 03:18:18;;;;;;;7.00;3.85;;;17.60;72.40;;;;;;4995933;28;20489;-69
2021/06/16 03:20:44;;;;;;;6.15;4.45;;;17.60;72.40;;;;;;5027009;28;20041;-69
2021/06/16 03:23:12;;;;;;;6.10;4.05;;;17.60;72.40;;;;;;5030691;28;20108;-69
2021/06/16 03:25:39;;;;;;;5.72;3.72;;;17.60;72.50;;;;;;5028860;28;20179;-69
2021/06/16 03:28:06;;;;;;;4.57;3.85;;;17.50;72.50;;;;;;5029770;28;20021;-69
2021/06/16 03:30:32;;;;;;;4.07;3.60;;;17.50;72.60;;;;;;5022874;28;20018;-69
2021/06/16 03:32:59;;;;;;;5.80;3.63;;;17.50;72.60;;;;;;5025822;28;20093;-69
2021/06/16 03:35:25;;;;;;;6.55;3.25;;;17.50;72.70;;;;;;5024332;28;20041;-69
2021/06/16 03:37:51;;;;;;;4.72;3.35;;;17.50;72.70;;;;;;5018983;28;20106;-69
2021/06/16 03:40:18;;;;;;;6.70;3.50;;;17.50;72.70;;;;;;5009109;28;20485;-69
2021/06/16 03:42:45;;;;;;;4.15;3.40;;;17.40;72.70;;;;;;5029739;28;20072;-68
2021/06/16 03:45:11;;;;;;;3.97;3.05;;;17.40;72.80;;;;;;5028427;28;20087;-69
2021/06/16 03:47:41;;;;;;;6.60;3.30;;;17.40;72.70;;;;;;5029546;28;20029;-69
2021/06/16 03:50:10;;;;;;;3.28;2.97;;;17.40;72.90;;;;;;5029935;28;20075;-69
2021/06/16 03:52:37;;;;;;;3.97;2.80;;;17.40;72.80;;;;;;5028848;28;20477;-69
2021/06/16 03:55:05;;;;;;;4.38;3.33;;;17.40;72.70;;;;;;5028579;28;20057;-68
2021/06/16 03:57:32;;;;;;;4.93;3.15;;;17.40;72.70;;;;;;5029589;28;20140;-68
2021/06/16 03:59:58;;;;;;;5.35;3.42;;;17.40;72.70;;;;;;5021488;28;20029;-69
2021/06/16 04:02:24;;;;;;;6.45;3.22;;;17.40;72.60;;;;;;5029775;28;20047;-69
2021/06/16 04:04:51;;;;;;;4.07;2.78;;;17.40;72.70;;;;;;5028271;28;20458;-69
2021/06/16 04:07:19;;;;;;;5.55;3.08;;;17.40;72.70;;;;;;5028611;28;20466;-69
2021/06/16 04:09:49;;;;;;;3.53;2.58;;;17.40;72.70;;;;;;5028906;28;20022;-69
2021/06/16 04:12:15;;;;;;;4.32;2.95;;;17.40;72.80;;;;;;5035641;28;20022;-69
2021/06/16 04:14:41;;;;;;;4.22;3.00;;;17.40;72.60;;;;;;5035080;28;20484;-69
2021/06/16 04:17:07;;;;;;;4.05;3.13;;;17.40;72.70;;;;;;5035508;28;20512;-68
2021/06/16 04:19:33;;;;;;;5.43;2.83;;;17.40;72.70;;;;;;5035577;28;20096;-69
2021/06/16 04:21:58;;;;;;;3.25;2.83;;;17.40;72.70;;;;;;5035822;28;20061;-69
2021/06/16 04:24:24;;;;;;;6.85;3.45;;;17.40;72.70;;;;;;5034656;28;20079;-69
2021/06/16 04:26:50;;;;;;;5.70;3.05;;;17.40;72.70;;;;;;5035517;28;20394;-69
2021/06/16 04:29:15;;;;;;;10.73;2.95;;;17.40;72.60;;;;;;5026330;28;20114;-69
2021/06/16 04:31:41;;;;;;;3.50;2.80;;;17.40;72.60;;;;;;5027920;28;20028;-69
2021/06/16 04:34:06;;;;;;;7.10;3.65;;;17.40;72.70;;;;;;5033788;28;20029;-69
2021/06/16 04:36:32;;;;;;;4.70;3.17;;;17.40;72.70;;;;;;5017332;28;20034;-68
2021/06/16 04:38:58;;;;;;;4.07;3.08;;;17.40;72.70;;;;;;5016297;28;20029;-66
2021/06/16 04:41:23;;;;;;;6.68;3.70;;;17.40;72.60;;;;;;5034643;28;20021;-68
2021/06/16 04:43:49;;;;;;;7.20;3.47;;;17.40;72.50;;;;;;5035407;28;20108;-64
2021/06/16 04:46:14;;;;;;;6.32;3.42;;;17.30;72.50;;;;;;5034324;28;20091;-68
2021/06/16 04:48:42;;;;;;;4.72;3.17;;;17.30;72.60;;;;;;5036114;28;20120;-68
2021/06/16 04:51:07;;;;;;;4.35;3.03;;;17.20;72.90;;;;;;5035685;28;20055;-67
2021/06/16 04:53:33;;;;;;;3.65;3.30;;;17.20;73.10;;;;;;5017592;28;20060;-66
2021/06/16 04:55:59;;;;;;;3.75;3.17;;;17.20;73.20;;;;;;5034364;28;20478;-67
2021/06/16 04:58:24;;;;;;;5.80;3.30;;;17.20;73.70;;;;;;5033274;28;20040;-68
2021/06/16 05:00:50;;;;;;;4.85;3.13;;;17.30;73.40;;;;;;5025190;28;20045;-69
2021/06/16 05:03:16;;;;;;;4.07;3.15;;;17.30;73.40;;;;;;5028640;28;20417;-69
2021/06/16 05:05:41;;;;;;;7.07;3.97;;;17.40;73.40;;;;;;5034800;28;20436;-70
2021/06/16 05:08:07;;;;;;;5.70;3.80;;;17.50;73.40;;;;;;5035764;28;20029;-69
2021/06/16 05:10:33;;;;;;;8.93;3.78;;;17.60;73.30;;;;;;5036425;28;20083;-71
2021/06/16 05:12:58;;;;;;;5.68;3.25;;;17.70;73.30;;;;;;5036290;28;20409;-70
2021/06/16 05:15:24;;;;;;;7.05;3.55;;;17.80;73.30;;;;;;5034101;28;20083;-70
2021/06/16 05:17:50;;;;;;;9.32;3.97;;;17.90;73.30;;;;;;5035642;28;20512;-69
2021/06/16 05:20:15;;;;;;;14.35;3.90;;;18.00;73.30;;;;;;5036189;28;20059;-70
2021/06/16 05:22:42;;;;;;;15.73;3.83;;;18.10;73.20;;;;;;5033374;28;20043;-69
2021/06/16 05:25:09;;;;;;;9.35;4.10;;;18.30;73.10;;;;;;5030503;28;20363;-69
2021/06/16 05:30:11;;;;;;;9.95;4.10;;;18.50;72.90;;;;;;4780504;22;20424;-70
2021/06/16 05:32:37;;;;;;;7.32;4.18;;;18.60;72.60;;;;;;5050920;28;20113;-70
2021/06/16 05:35:04;;;;;;;9.73;3.97;;;18.70;72.40;;;;;;5029742;28;20029;-69
2021/06/16 05:37:30;;;;;;;16.58;4.78;;;18.70;72.80;;;;;;5030794;28;20028;-69
2021/06/16 05:39:55;;;;;;;8.18;3.58;;;18.80;72.90;;;;;;5046010;28;20025;-70
2021/06/16 05:42:21;;;;;;;10.43;3.45;;;18.90;72.80;;;;;;5034154;28;20389;-70
2021/06/16 05:44:47;;;;;;;4.55;3.92;;;19.10;72.70;;;;;;5033760;28;20048;-71
2021/06/16 05:47:12;;;;;;;8.35;3.83;;;19.20;72.70;;;;;;5034245;28;20021;-69
2021/06/16 05:49:38;;;;;;;7.35;3.80;;;19.30;72.70;;;;;;5052515;28;20033;-69
2021/06/16 05:52:04;;;;;;;5.65;3.72;;;19.50;72.50;;;;;;5051780;28;20021;-69
2021/06/16 05:54:29;;;;;;;6.47;3.75;;;19.60;72.10;;;;;;5051908;28;20029;-69
2021/06/16 05:56:55;;;;;;;5.60;3.58;;;19.70;71.80;;;;;;5042705;28;20025;-70
2021/06/16 05:59:21;;;;;;;5.45;3.70;;;19.90;71.50;;;;;;5045831;28;20096;-72
2021/06/16 06:01:46;;;;;;;8.30;3.75;;;20.00;71.20;;;;;;5045042;28;20487;-70
2021/06/16 06:04:12;;;;;;;5.53;3.53;;;20.10;71.00;;;;;;5049360;28;20032;-70
2021/06/16 06:06:38;;;;;;;4.82;3.50;;;20.30;70.80;;;;;;5034379;28;20021;-70
2021/06/16 06:09:06;;;;;;;5.95;3.78;;;20.40;70.60;;;;;;5029014;28;20113;-71
2021/06/16 06:11:33;;;;;;;4.32;3.60;;;20.60;70.40;;;;;;5044579;28;20515;-72
2021/06/16 06:13:59;;;;;;;4.60;3.60;;;20.70;70.00;;;;;;5050976;28;20404;-70
2021/06/16 06:16:25;;;;;;;5.03;3.25;;;20.80;69.90;;;;;;5040187;28;20113;-72
2021/06/16 06:18:50;;;;;;;5.15;3.50;;;20.90;69.50;;;;;;5046733;28;20044;-68
2021/06/16 06:21:16;;;;;;;8.52;3.85;;;21.00;69.20;;;;;;5051275;28;20056;-69
2021/06/16 06:23:41;;;;;;;21.73;13.65;;;21.20;69.00;;;;;;5051058;28;20096;-68
2021/06/16 06:26:07;;;;;;;4.95;4.00;;;21.30;68.80;;;;;;5050060;28;20029;-67
2021/06/16 06:28:33;;;;;;;10.60;5.53;;;21.40;69.10;;;;;;5043629;28;20021;-68
2021/06/16 06:30:58;;;;;;;6.72;4.10;;;21.50;69.20;;;;;;5037147;28;20025;-68
2021/06/16 06:33:24;;;;;;;10.70;5.18;;;21.60;69.00;;;;;;5025132;28;20018;-70
2021/06/16 06:35:49;;;;;;;6.20;4.70;;;21.70;68.80;;;;;;5026368;28;20421;-68
2021/06/16 06:38:15;;;;;;;8.63;3.80;;;21.70;68.70;;;;;;5039287;28;20455;-68
2021/06/16 06:40:41;;;;;;;9.80;5.40;;;21.80;68.70;;;;;;5051657;28;20033;-68
2021/06/16 06:43:07;;;;;;;7.38;4.95;;;21.90;68.70;;;;;;5033577;28;20108;-68
2021/06/16 06:45:33;;;;;;;56.63;40.45;;;22.00;68.50;;;;;;5047685;28;20384;-68
2021/06/16 06:47:59;;;;;;;5.93;4.97;;;22.20;68.20;;;;;;5031028;28;20017;-69
2021/06/16 06:50:25;;;;;;;7.10;4.80;;;22.40;68.10;;;;;;5031734;28;20547;-70
2021/06/16 06:52:50;;;;;;;8.60;4.57;;;22.50;68.00;;;;;;5038407;28;20377;-69
2021/06/16 06:55:17;;;;;;;10.43;4.22;;;22.70;67.60;;;;;;5050422;28;20029;-68
2021/06/16 06:57:43;;;;;;;4.93;4.40;;;22.90;67.30;;;;;;5050928;28;20031;-67
2021/06/16 07:00:10;;;;;;;7.45;4.05;;;23.10;66.90;;;;;;5033116;28;20481;-70
2021/06/16 07:02:36;;;;;;;9.65;4.07;;;23.20;66.50;;;;;;5015138;28;20079;-68
2021/06/16 07:05:03;;;;;;;8.38;3.67;;;23.40;66.20;;;;;;5030068;28;20025;-68
2021/06/16 07:07:28;;;;;;;7.57;3.33;;;23.50;66.00;;;;;;5035131;28;20033;-68
2021/06/16 07:09:54;;;;;;;7.32;3.90;;;23.70;65.70;;;;;;5051211;28;20083;-68
2021/06/16 07:12:20;;;;;;;4.30;3.10;;;23.90;65.30;;;;;;5050715;28;20071;-69
2021/06/16 07:14:45;;;;;;;3.78;3.03;;;24.10;65.20;;;;;;5049895;28;20033;-70
2021/06/16 07:17:11;;;;;;;7.32;3.28;;;24.30;65.00;;;;;;5050386;28;20021;-69
2021/06/16 07:19:37;;;;;;;10.57;3.30;;;24.40;64.50;;;;;;5051078;28;20107;-68
2021/06/16 07:22:03;;;;;;;6.80;3.05;;;24.70;63.80;;;;;;5051019;28;20029;-68
2021/06/16 07:24:29;;;;;;;9.00;3.35;;;24.90;63.10;;;;;;5031303;28;20364;-68
2021/06/16 07:26:56;;;;;;;7.32;2.92;;;25.00;63.10;;;;;;5050380;28;20040;-68
2021/06/16 07:29:22;;;;;;;7.78;2.80;;;25.20;62.80;;;;;;5029363;28;20029;-68
2021/06/16 07:31:48;;;;;;;3.72;2.90;;;25.40;62.40;;;;;;5035927;28;20135;-68
2021/06/16 07:34:13;;;;;;;4.53;2.80;;;25.50;62.20;;;;;;5034544;28;20027;-68
2021/06/16 07:36:39;;;;;;;5.35;3.13;;;25.70;61.50;;;;;;5028261;28;20680;-69
2021/06/16 07:39:06;;;;;;;5.25;3.08;;;26.00;60.90;;;;;;5039079;28;20029;-68
2021/06/16 07:41:31;;;;;;;6.22;3.05;;;26.20;60.60;;;;;;5037867;28;20032;-68
2021/06/16 07:43:57;;;;;;;5.15;2.78;;;26.50;60.70;;;;;;5029595;28;20018;-68
2021/06/16 07:46:23;;;;;;;6.38;2.63;;;26.70;60.30;;;;;;5011606;28;20063;-69
2021/06/16 07:48:52;;;;;;;5.15;2.60;;;26.90;59.90;;;;;;5044644;28;20024;-69
2021/06/16 07:51:19;;;;;;;4.82;2.60;;;27.10;59.70;;;;;;5050338;28;20029;-69
2021/06/16 07:53:45;;;;;;;3.70;2.10;;;27.40;59.30;;;;;;5050744;28;20115;-70
2021/06/16 07:56:10;;;;;;;3.70;2.50;;;27.70;58.70;;;;;;5048714;28;20056;-69
2021/06/16 07:58:36;;;;;;;4.43;2.70;;;27.90;57.70;;;;;;5046853;28;20029;-69
2021/06/16 08:01:02;;;;;;;5.28;2.17;;;28.20;57.00;;;;;;5039506;28;20100;-69
2021/06/16 08:03:28;;;;;;;4.28;2.38;;;28.60;56.30;;;;;;5030284;28;20108;-72
2021/06/16 08:05:54;;;;;;;3.95;2.47;;;28.90;55.70;;;;;;5049057;28;20025;-71
2021/06/16 08:08:21;;;;;;;3.15;2.67;;;29.00;54.80;;;;;;5032271;28;20032;-72
2021/06/16 08:10:47;;;;;;;3.67;2.63;;;29.10;53.80;;;;;;5049739;28;20097;-71
2021/06/16 08:13:12;;;;;;;6.78;2.53;;;29.30;53.40;;;;;;5050078;28;20293;-71
2021/06/16 08:15:38;;;;;;;4.95;2.30;;;29.60;52.90;;;;;;5048816;28;20033;-71
2021/06/16 08:18:05;;;;;;;5.63;2.20;;;29.80;52.30;;;;;;5049475;28;20389;-71
2021/06/16 08:20:31;;;;;;;5.95;2.65;;;30.10;51.40;;;;;;5031069;28;20063;-71
2021/06/16 08:22:57;;;;;;;3.00;2.00;;;30.50;50.50;;;;;;5039101;28;20079;-72
2021/06/16 08:25:23;;;;;;;5.57;2.22;;;30.80;49.50;;;;;;5031421;28;20021;-70
2021/06/16 08:27:49;;;;;;;2.70;2.15;;;31.10;49.20;;;;;;5049536;28;20657;-70
2021/06/16 08:30:15;;;;;;;4.43;2.30;;;31.40;49.50;;;;;;5034387;28;20405;-72
2021/06/16 08:32:42;;;;;;;6.03;2.25;;;31.60;48.90;;;;;;5049670;28;20021;-70
2021/06/16 08:35:08;;;;;;;7.68;1.90;;;31.60;47.50;;;;;;5048952;28;20028;-70
2021/06/16 08:37:33;;;;;;;6.15;2.63;;;31.70;47.40;;;;;;5041672;28;20032;-71
2021/06/16 08:39:59;;;;;;;6.65;2.25;;;32.00;47.10;;;;;;5023400;28;20118;-71
2021/06/16 08:42:26;;;;;;;6.95;2.45;;;32.40;46.30;;;;;;5049791;28;20074;-71
2021/06/16 08:44:54;;;;;;;5.47;2.60;;;32.80;45.60;;;;;;5048009;28;20025;-74
2021/06/16 08:47:21;;;;;;;8.38;2.15;;;33.10;45.10;;;;;;5040307;28;20424;-71
2021/06/16 08:49:47;;;;;;;5.72;2.17;;;33.50;45.20;;;;;;5033209;28;20052;-70
2021/06/16 08:52:13;;;;;;;2.30;2.05;;;33.80;43.50;;;;;;5049993;28;20028;-70
2021/06/16 08:54:39;;;;;;;3.78;2.17;;;34.30;42.70;;;;;;5045602;28;20029;-72
2021/06/16 08:57:05;;;;;;;3.60;1.70;;;34.50;42.20;;;;;;5050662;28;20029;-72
2021/06/16 08:59:30;;;;;;;2.75;2.05;;;34.90;41.70;;;;;;5043854;28;20028;-72
2021/06/16 09:01:56;;;;;;;6.32;2.97;;;35.30;41.00;;;;;;5053335;28;20033;-71
2021/06/16 09:04:43;;;;;;;8.73;2.42;;;35.80;40.70;;;;;;5052240;28;20077;-71
2021/06/16 09:07:14;;;;;;;3.28;2.00;;;35.90;40.30;;;;;;5052502;28;20485;-72
2021/06/16 09:09:40;;;;;;;3.10;1.97;;;35.60;39.90;;;;;;5048508;28;20049;-70
2021/06/16 09:12:07;;;;;;;7.10;2.30;;;35.50;40.30;;;;;;5053409;28;20448;-70
2021/06/16 09:14:33;;;;;;;5.65;1.80;;;35.70;39.50;;;;;;5051667;28;20108;-69
2021/06/16 09:17:03;;;;;;;5.78;1.90;;;35.80;38.60;;;;;;5052196;28;20100;-69
2021/06/16 09:19:36;;;;;;;3.70;1.80;;;35.80;38.20;;;;;;5029291;28;20041;-69
2021/06/16 09:22:07;;;;;;;3.38;1.90;;;36.00;38.10;;;;;;5053381;28;20017;-70
2021/06/16 09:24:44;;;;;;;2.67;1.87;;;35.90;37.80;;;;;;5050236;28;20083;-69
2021/06/16 09:27:10;;;;;;;5.68;1.85;;;36.10;37.60;;;;;;5034382;28;20028;-69
2021/06/16 09:29:36;;;;;;;6.38;1.98;;;36.10;37.60;;;;;;5033622;28;20120;-69
2021/06/16 09:32:04;;;;;;;5.03;1.90;;;36.40;37.30;;;;;;5034805;28;20119;-71
2021/06/16 09:34:29;;;;;;;4.57;2.17;;;36.60;37.10;;;;;;5017158;28;20031;-70
2021/06/16 09:36:57;;;;;;;2.85;1.83;;;37.00;36.70;;;;;;5052267;28;20029;-70
2021/06/16 09:39:25;;;;;;;2.38;1.50;;;37.20;36.00;;;;;;5033734;28;20033;-68
2021/06/16 09:42:01;;;;;;;1.90;1.70;;;37.40;35.90;;;;;;5030719;28;20036;-69
2021/06/16 09:44:50;;;;;;;3.58;1.75;;;37.70;35.30;;;;;;5050886;28;20060;-69
2021/06/16 09:47:17;;;;;;;4.50;1.90;;;37.90;34.90;;;;;;5034269;28;20025;-71
2021/06/16 09:50:04;;;;;;;4.20;1.90;;;37.90;35.10;;;;;;5053054;28;20037;-69
2021/06/16 09:52:32;;;;;;;5.00;1.83;;;38.20;35.20;;;;;;5033440;28;20381;-69
2021/06/16 09:54:59;;;;;;;6.93;2.10;;;38.00;34.10;;;;;;5031700;28;20473;-69
2021/06/16 09:57:25;;;;;;;3.42;1.48;;;37.90;34.70;;;;;;5031916;28;20030;-69
2021/06/16 09:59:56;;;;;;;7.50;1.77;;;37.80;34.60;;;;;;5035462;28;20100;-69
2021/06/16 10:02:23;;;;;;;3.28;1.45;;;37.60;34.40;;;;;;5032218;28;20013;-68
2021/06/16 10:05:00;;;;;;;3.75;1.98;;;37.40;34.40;;;;;;5050765;28;20488;-69
2021/06/16 10:07:33;;;;;;;4.93;1.70;;;37.30;34.60;;;;;;5051935;28;20025;-68
2021/06/16 10:10:07;;;;;;;4.00;1.83;;;37.30;34.50;;;;;;5033770;28;20045;-71
2021/06/16 10:12:34;;;;;;;4.20;1.80;;;37.10;34.70;;;;;;5034527;28;20025;-70
2021/06/16 10:15:14;;;;;;;10.13;1.70;;;36.80;35.20;;;;;;5051102;28;20508;-69
2021/06/16 10:17:40;;;;;;;;;;;36.70;34.90;;;;;;5051337;28;20119;-68
2021/06/16 10:20:08;;;;;;;2.85;1.35;;;36.70;37.10;;;;;;5052256;28;19958;-69
2021/06/16 10:22:34;;;;;;;2.47;1.48;;;36.70;36.40;;;;;;5032560;28;20033;-70
2021/06/16 10:25:00;;;;;;;4.32;1.80;;;36.70;35.70;;;;;;5050566;28;20359;-69
2021/06/16 10:27:32;;;;;;;2.10;1.35;;;36.60;35.90;;;;;;5031344;28;20021;-70
2021/06/16 10:30:08;;;;;;;2.13;1.20;;;36.60;35.50;;;;;;5043690;28;20029;-69
2021/06/16 10:32:36;;;;;;;2.17;1.60;;;36.50;35.60;;;;;;5048220;28;20540;-69
2021/06/16 10:35:03;;;;;;;5.55;1.73;;;36.40;36.00;;;;;;5043943;28;20040;-70
2021/06/16 10:37:31;;;;;;;4.45;1.80;;;36.00;35.00;;;;;;5050725;28;20104;-68
2021/06/16 10:40:12;;;;;;;4.85;1.40;;;35.80;34.90;;;;;;5044801;28;20040;-68
2021/06/16 10:43:09;;;;;;;2.10;1.50;;;35.30;34.60;;;;;;5031486;28;20512;-68
2021/06/16 10:45:54;;;;;;;2.28;1.45;;;35.10;35.00;;;;;;5030347;28;20025;-69
2021/06/16 10:48:21;;;;;;;2.35;1.38;;;35.00;35.10;;;;;;5030956;28;20014;-69
2021/06/16 10:50:47;;;;;;;4.00;1.65;;;34.90;35.30;;;;;;5031535;28;20453;-69
2021/06/16 10:53:19;;;;;;;2.13;1.50;;;34.70;35.60;;;;;;5013629;28;20099;-69
2021/06/16 10:55:57;;;;;;;2.05;1.65;;;34.60;35.50;;;;;;5029903;28;20044;-69
2021/06/16 10:58:25;;;;;;;2.33;1.90;;;34.50;35.30;;;;;;5016227;28;20032;-69
2021/06/16 11:01:14;;;;;;;3.35;1.50;;;34.30;35.70;;;;;;5031057;28;21036;-69
2021/06/16 11:03:52;;;;;;;4.65;1.60;;;34.20;35.70;;;;;;5030958;28;20025;-67
2021/06/16 11:06:30;;;;;;;5.10;1.55;;;33.80;34.90;;;;;;5049422;28;20037;-68
2021/06/16 11:08:55;;;;;;;2.70;1.50;;;33.50;35.40;;;;;;5050776;28;20369;-68
2021/06/16 11:11:21;;;;;;;2.85;1.40;;;33.30;35.80;;;;;;5049904;28;20092;-70
2021/06/16 11:13:47;;;;;;;4.30;1.90;;;33.20;36.20;;;;;;5035057;28;20025;-69
2021/06/16 11:16:39;;;;;;;4.78;2.85;;;33.20;36.60;;;;;;5038657;28;20040;-69
2021/06/16 11:19:26;;;;;;;3.60;1.63;;;33.20;36.50;;;;;;5044816;28;20037;-69
2021/06/16 11:21:55;;;;;;;4.53;1.60;;;33.30;36.70;;;;;;5046594;28;20025;-69
2021/06/16 11:24:21;;;;;;;2.85;1.83;;;33.30;36.80;;;;;;5049631;28;20025;-69
2021/06/16 11:26:48;;;;;;;4.35;1.90;;;33.30;36.60;;;;;;5050681;28;20078;-69
2021/06/16 11:29:51;;;;;;;6.32;1.90;;;33.30;36.80;;;;;;5061661;22;20492;-67
2021/06/16 11:32:17;;;;;;;2.83;1.80;;;33.20;37.40;;;;;;5037879;28;20033;-68
2021/06/16 11:34:53;;;;;;;5.93;1.95;;;33.10;37.80;;;;;;5021750;28;20021;-68
2021/06/16 11:37:57;;;;;;;2.25;2.00;;;33.00;37.80;;;;;;5010956;28;20073;-68
2021/06/16 11:40:23;;;;;;;3.63;1.90;;;33.00;37.90;;;;;;5018421;28;20393;-67
2021/06/16 11:42:49;;;;;;;5.07;1.90;;;33.00;38.40;;;;;;5031089;28;20539;-67
2021/06/16 11:45:14;;;;;;;4.13;2.22;;;33.00;38.20;;;;;;5031591;28;20037;-68
2021/06/16 11:47:40;;;;;;;3.45;1.60;;;32.90;38.40;;;;;;5030579;28;20021;-68
2021/06/16 11:50:09;;;;;;;3.70;2.20;;;32.90;38.30;;;;;;5037416;28;20043;-68
2021/06/16 11:52:34;;;;;;;3.97;2.08;;;33.00;38.40;;;;;;5030836;28;20113;-68
2021/06/16 11:55:00;;;;;;;6.03;2.10;;;33.00;39.00;;;;;;5029539;28;20113;-68
2021/06/16 11:57:27;;;;;;;6.18;2.03;;;33.10;39.00;;;;;;5042269;28;20032;-67
2021/06/16 11:59:54;;;;;;;1.60;1.50;;;33.10;38.80;;;;;;5021669;28;20034;-68
2021/06/16 12:02:25;;;;;;;5.68;1.77;;;33.00;37.90;;;;;;5011268;28;20080;-67
2021/06/16 12:05:03;;;;;;;2.28;1.48;;;33.00;37.70;;;;;;5036290;28;20029;-67
2021/06/16 12:07:44;;;;;;;3.90;1.50;;;33.00;37.40;;;;;;5049189;28;20506;-68
2021/06/16 12:10:11;;;;;;;6.50;2.10;;;33.10;38.50;;;;;;5050543;28;20025;-68
2021/06/16 12:13:05;;;;;;;6.03;2.08;;;33.20;38.40;;;;;;5031977;28;20026;-67
2021/06/16 12:15:40;;;;;;;3.25;1.98;;;33.10;38.40;;;;;;5028618;28;20493;-68
2021/06/16 12:18:08;;;;;;;4.78;2.03;;;33.00;37.80;;;;;;5012494;28;20079;-68
2021/06/16 12:20:45;;;;;;;3.88;1.95;;;32.90;38.40;;;;;;5047737;28;20025;-67
2021/06/16 12:23:29;;;;;;;4.38;2.10;;;32.90;38.80;;;;;;5050481;28;20041;-67
2021/06/16 12:26:14;;;;;;;4.30;2.10;;;32.90;39.00;;;;;;5049448;28;20028;-68
2021/06/16 12:28:43;;;;;;;3.22;1.60;;;33.00;37.50;;;;;;5034190;28;20025;-68
2021/06/16 12:31:13;;;;;;;3.20;1.63;;;33.00;37.70;;;;;;5030451;28;20425;-67
2021/06/16 12:34:02;;;;;;;5.17;1.87;;;33.00;37.40;;;;;;5034509;28;20473;-69
2021/06/16 12:36:34;;;;;;;5.32;1.80;;;32.90;37.70;;;;;;5013421;28;20436;-68
2021/06/16 12:39:24;;;;;;;3.03;1.90;;;32.80;37.70;;;;;;5014641;28;20040;-68
2021/06/16 12:41:53;;;;;;;3.13;1.80;;;32.60;37.80;;;;;;5022770;28;20029;-68
2021/06/16 12:44:24;;;;;;;6.68;2.30;;;32.50;37.40;;;;;;5024578;28;20056;-68
2021/06/16 12:46:54;;;;;;;3.97;1.83;;;32.30;37.80;;;;;;5033827;28;20025;-67
2021/06/16 12:49:20;;;;;;;4.38;1.88;;;32.40;38.10;;;;;;5034414;28;20108;-68
2021/06/16 12:52:08;;;;;;;4.57;1.80;;;32.30;38.20;;;;;;5033940;28;20021;-68
2021/06/16 12:54:44;;;;;;;4.53;1.65;;;32.40;38.00;;;;;;5013276;28;20037;-68
2021/06/16 12:57:20;;;;;;;2.00;1.80;;;32.30;37.90;;;;;;5013993;28;20022;-68